sensor_id;sensor_type;location;lat;lon;timestamp;pressure;altitude;pressure_sealevel;temperature;humidity
14041;BME280;7095;51.388;6.196;2023-02-17T00:00:05;89396.97;;;-145.32;100.00
14041;BME280;7095;51.388;6.196;2023-02-17T00:02:34;88882.69;;;-145.32;100.00
14041;BME280;7095;51.388;6.196;2023-02-17T00:05:03;88882.69;;;-145.32;100.00
14041;BME280;7095;51.388;6.196;2023-02-17T00:07:33;88625.56;;;-145.32;100.00
14041;BME280;7095;51.388;6.196;2023-02-17T00:10:01;88111.41;;;-145.32;100.00
14041;BME280;7095;51.388;6.196;2023-02-17T00:12:30;88111.41;;;-145.32;100.00
14041;BME280;7095;51.388;6.196;2023-02-17T00:14:58;87597.34;;;-145.32;100.00
14041;BME280;7095;51.388;6.196;2023-02-17T00:17:26;86826.34;;;-145.32;100.00
14041;BME280;7095;51.388;6.196;2023-02-17T00:19:55;86569.41;;;-145.32;100.00
14041;BME280;7095;51.388;6.196;2023-02-17T00:22:25;85028.06;;;-145.32;100.00
14041;BME280;7095;51.388;6.196;2023-02-17T00:24:55;84257.66;;;-145.32;100.00
14041;BME280;7095;51.388;6.196;2023-02-17T00:27:23;83744.16;;;-145.32;100.00
14041;BME280;7095;51.388;6.196;2023-02-17T00:29:52;83487.44;;;-145.32;100.00
14041;BME280;7095;51.388;6.196;2023-02-17T00:32:20;83230.72;;;-145.32;100.00
14041;BME280;7095;51.388;6.196;2023-02-17T00:34:50;83230.72;;;-145.32;100.00
14041;BME280;7095;51.388;6.196;2023-02-17T00:37:19;82717.38;;;-145.32;100.00
14041;BME280;7095;51.388;6.196;2023-02-17T00:39:47;82717.38;;;-145.32;100.00
14041;BME280;7095;51.388;6.196;2023-02-17T00:42:19;82460.72;;;-145.32;100.00
14041;BME280;7095;51.388;6.196;2023-02-17T00:44:47;81690.91;;;-145.32;100.00
14041;BME280;7095;51.388;6.196;2023-02-17T00:47:16;81177.78;;;-145.32;100.00
14041;BME280;7095;51.388;6.196;2023-02-17T00:49:46;81434.31;;;-145.32;100.00
14041;BME280;7095;51.388;6.196;2023-02-17T00:52:14;81434.31;;;-145.32;100.00
14041;BME280;7095;51.388;6.196;2023-02-17T00:54:42;81177.78;;;-145.32;100.00
14041;BME280;7095;51.388;6.196;2023-02-17T00:57:11;81690.91;;;-145.32;100.00
14041;BME280;7095;51.388;6.196;2023-02-17T00:59:41;81690.91;;;-145.32;100.00
14041;BME280;7095;51.388;6.196;2023-02-17T01:02:09;82204.09;;;-145.32;100.00
14041;BME280;7095;51.388;6.196;2023-02-17T01:04:38;82460.72;;;-145.32;100.00
14041;BME280;7095;51.388;6.196;2023-02-17T01:07:06;82717.38;;;-145.32;100.00
14041;BME280;7095;51.388;6.196;2023-02-17T01:09:34;82717.38;;;-145.32;100.00
14041;BME280;7095;51.388;6.196;2023-02-17T01:12:03;82974.03;;;-145.32;100.00
14041;BME280;7095;51.388;6.196;2023-02-17T01:14:32;83230.72;;;-145.32;100.00
14041;BME280;7095;51.388;6.196;2023-02-17T01:17:01;83744.16;;;-145.32;100.00
14041;BME280;7095;51.388;6.196;2023-02-17T01:19:30;84257.66;;;-145.32;100.00
14041;BME280;7095;51.388;6.196;2023-02-17T01:21:58;85028.06;;;-145.32;100.00
14041;BME280;7095;51.388;6.196;2023-02-17T01:24:27;86055.56;;;-145.32;100.00
14041;BME280;7095;51.388;6.196;2023-02-17T01:26:55;86312.47;;;-145.32;100.00
14041;BME280;7095;51.388;6.196;2023-02-17T01:29:26;86826.34;;;-145.32;100.00
14041;BME280;7095;51.388;6.196;2023-02-17T01:31:55;87340.31;;;-145.32;100.00
14041;BME280;7095;51.388;6.196;2023-02-17T01:34:27;87854.38;;;-145.32;100.00
14041;BME280;7095;51.388;6.196;2023-02-17T01:36:55;88368.50;;;-145.32;100.00
14041;BME280;7095;51.388;6.196;2023-02-17T01:39:24;88882.69;;;-145.32;100.00
14041;BME280;7095;51.388;6.196;2023-02-17T01:41:52;89396.97;;;-145.32;100.00
14041;BME280;7095;51.388;6.196;2023-02-17T01:44:22;89396.97;;;-145.32;100.00
14041;BME280;7095;51.388;6.196;2023-02-17T01:46:51;89654.13;;;-145.32;100.00
14041;BME280;7095;51.388;6.196;2023-02-17T01:49:30;89396.97;;;-145.32;100.00
14041;BME280;7095;51.388;6.196;2023-02-17T01:52:10;89396.97;;;-145.32;100.00
14041;BME280;7095;51.388;6.196;2023-02-17T01:54:41;89139.81;;;-145.32;100.00
14041;BME280;7095;51.388;6.196;2023-02-17T01:57:14;88368.50;;;-145.32;100.00
14041;BME280;7095;51.388;6.196;2023-02-17T01:59:44;87854.38;;;-145.32;100.00
14041;BME280;7095;51.388;6.196;2023-02-17T02:02:14;86826.34;;;-145.32;100.00
14041;BME280;7095;51.388;6.196;2023-02-17T02:04:46;86826.34;;;-145.32;100.00
14041;BME280;7095;51.388;6.196;2023-02-17T02:07:19;85798.66;;;-145.32;100.00
14041;BME280;7095;51.388;6.196;2023-02-17T02:09:50;85798.66;;;-145.32;100.00
14041;BME280;7095;51.388;6.196;2023-02-17T02:12:21;85798.66;;;-145.32;100.00
14041;BME280;7095;51.388;6.196;2023-02-17T02:14:51;85798.66;;;-145.32;100.00
14041;BME280;7095;51.388;6.196;2023-02-17T02:17:28;85541.78;;;-145.32;100.00
14041;BME280;7095;51.388;6.196;2023-02-17T02:20:24;84771.25;;;-145.32;100.00
14041;BME280;7095;51.388;6.196;2023-02-17T02:23:10;85028.06;;;-145.32;100.00
14041;BME280;7095;51.388;6.196;2023-02-17T02:26:02;84257.66;;;-145.32;100.00
14041;BME280;7095;51.388;6.196;2023-02-17T02:28:49;83744.16;;;-145.32;100.00
14041;BME280;7095;51.388;6.196;2023-02-17T02:31:31;83744.16;;;-145.32;100.00
14041;BME280;7095;51.388;6.196;2023-02-17T02:34:08;83230.72;;;-145.32;100.00
14041;BME280;7095;51.388;6.196;2023-02-17T02:36:44;82974.03;;;-145.32;100.00
14041;BME280;7095;51.388;6.196;2023-02-17T02:39:16;82974.03;;;-145.32;100.00
14041;BME280;7095;51.388;6.196;2023-02-17T02:41:48;82974.03;;;-145.32;100.00
14041;BME280;7095;51.388;6.196;2023-02-17T02:44:19;82204.09;;;-145.32;100.00
14041;BME280;7095;51.388;6.196;2023-02-17T02:46:55;81690.91;;;-145.32;100.00
14041;BME280;7095;51.388;6.196;2023-02-17T02:49:30;81177.78;;;-145.32;100.00
14041;BME280;7095;51.388;6.196;2023-02-17T02:52:07;81690.91;;;-145.32;100.00
14041;BME280;7095;51.388;6.196;2023-02-17T02:54:46;80921.25;;;-145.32;100.00
14041;BME280;7095;51.388;6.196;2023-02-17T02:57:36;80408.22;;;-145.32;100.00
14041;BME280;7095;51.388;6.196;2023-02-17T03:00:14;80664.72;;;-145.32;100.00
14041;BME280;7095;51.388;6.196;2023-02-17T03:02:50;80664.72;;;-145.32;100.00
14041;BME280;7095;51.388;6.196;2023-02-17T03:05:27;80921.25;;;-145.32;100.00
14041;BME280;7095;51.388;6.196;2023-02-17T03:08:05;80921.25;;;-145.32;100.00
14041;BME280;7095;51.388;6.196;2023-02-17T03:10:43;80921.25;;;-145.32;100.00
14041;BME280;7095;51.388;6.196;2023-02-17T03:13:15;80921.25;;;-145.32;100.00
14041;BME280;7095;51.388;6.196;2023-02-17T03:15:44;80921.25;;;-145.32;100.00
14041;BME280;7095;51.388;6.196;2023-02-17T03:18:13;81177.78;;;-145.32;100.00
14041;BME280;7095;51.388;6.196;2023-02-17T03:20:49;80921.25;;;-145.32;100.00
14041;BME280;7095;51.388;6.196;2023-02-17T03:23:18;81434.31;;;-145.32;100.00
14041;BME280;7095;51.388;6.196;2023-02-17T03:25:47;81434.31;;;-145.32;100.00
14041;BME280;7095;51.388;6.196;2023-02-17T03:28:16;80921.25;;;-145.32;100.00
14041;BME280;7095;51.388;6.196;2023-02-17T03:30:45;80151.75;;;-145.32;100.00
14041;BME280;7095;51.388;6.196;2023-02-17T03:33:14;79382.44;;;-145.32;100.00
14041;BME280;7095;51.388;6.196;2023-02-17T03:35:44;79895.28;;;-145.32;100.00
14041;BME280;7095;51.388;6.196;2023-02-17T03:38:12;79126.03;;;-145.32;100.00
14041;BME280;7095;51.388;6.196;2023-02-17T03:40:41;78869.66;;;-145.32;100.00
14041;BME280;7095;51.388;6.196;2023-02-17T03:43:09;78356.94;;;-145.32;100.00
14041;BME280;7095;51.388;6.196;2023-02-17T03:45:38;78100.63;;;-145.32;100.00
14041;BME280;7095;51.388;6.196;2023-02-17T03:48:06;77588.03;;;-145.32;100.00
14041;BME280;7095;51.388;6.196;2023-02-17T03:50:34;77331.78;;;-145.32;100.00
14041;BME280;7095;51.388;6.196;2023-02-17T03:53:04;76819.28;;;-145.32;100.00
14041;BME280;7095;51.388;6.196;2023-02-17T03:55:33;76563.09;;;-145.32;100.00
14041;BME280;7095;51.388;6.196;2023-02-17T03:58:01;76306.91;;;-145.32;100.00
14041;BME280;7095;51.388;6.196;2023-02-17T04:00:30;75794.56;;;-145.32;100.00
14041;BME280;7095;51.388;6.196;2023-02-17T04:02:58;75026.22;;;-145.32;100.00
14041;BME280;7095;51.388;6.196;2023-02-17T04:05:27;75282.31;;;-145.32;100.00
14041;BME280;7095;51.388;6.196;2023-02-17T04:07:55;75026.22;;;-145.32;100.00
14041;BME280;7095;51.388;6.196;2023-02-17T04:10:25;74514.09;;;-145.32;100.00
14041;BME280;7095;51.388;6.196;2023-02-17T04:12:53;74514.09;;;-145.32;100.00
14041;BME280;7095;51.388;6.196;2023-02-17T04:15:22;74258.06;;;-145.32;100.00
14041;BME280;7095;51.388;6.196;2023-02-17T04:17:50;74002.03;;;-145.32;100.00
14041;BME280;7095;51.388;6.196;2023-02-17T04:20:19;73234.09;;;-145.32;100.00
14041;BME280;7095;51.388;6.196;2023-02-17T04:22:48;72722.25;;;-145.32;100.00
14041;BME280;7095;51.388;6.196;2023-02-17T04:25:16;71698.75;;;-145.32;100.00
14041;BME280;7095;51.388;6.196;2023-02-17T04:27:46;70801.44;;;-145.32;100.00
14041;BME280;7095;51.388;6.196;2023-02-17T04:30:15;69231.22;;;-145.32;100.00
14041;BME280;7095;51.388;6.196;2023-02-17T04:32:43;66807.38;;;-145.32;100.00
14041;BME280;7095;51.388;6.196;2023-02-17T04:35:12;65989.19;;;-145.32;100.00
14041;BME280;7095;51.388;6.196;2023-02-17T04:37:40;64959.72;;;-145.32;100.00
14041;BME280;7095;51.388;6.196;2023-02-17T04:40:09;63942.53;;;-145.32;100.00
14041;BME280;7095;51.388;6.196;2023-02-17T04:42:38;63547.72;;;-145.32;100.00
14041;BME280;7095;51.388;6.196;2023-02-17T04:45:08;63007.41;;;-145.32;100.00
14041;BME280;7095;51.388;6.196;2023-02-17T04:47:37;63158.91;;;-145.32;100.00
14041;BME280;7095;51.388;6.196;2023-02-17T04:50:07;63450.00;;;-145.32;100.00
14041;BME280;7095;51.388;6.196;2023-02-17T04:52:36;63657.38;;;-145.32;100.00
14041;BME280;7095;51.388;6.196;2023-02-17T04:55:06;63944.53;;;-145.32;100.00
14041;BME280;7095;51.388;6.196;2023-02-17T04:57:35;63814.91;;;-145.32;100.00
14041;BME280;7095;51.388;6.196;2023-02-17T05:00:04;63398.16;;;-145.32;100.00
14041;BME280;7095;51.388;6.196;2023-02-17T05:02:35;63238.66;;;-145.32;100.00
14041;BME280;7095;51.388;6.196;2023-02-17T05:05:03;62792.09;;;-145.32;100.00
14041;BME280;7095;51.388;6.196;2023-02-17T05:07:32;62636.59;;;-145.32;100.00
14041;BME280;7095;51.388;6.196;2023-02-17T05:10:00;62241.94;;;-145.32;100.00
14041;BME280;7095;51.388;6.196;2023-02-17T05:12:28;62132.31;;;-145.32;100.00
14041;BME280;7095;51.388;6.196;2023-02-17T05:14:57;61632.06;;;-145.32;100.00
14041;BME280;7095;51.388;6.196;2023-02-17T05:17:26;61365.03;;;-145.32;100.00
14041;BME280;7095;51.388;6.196;2023-02-17T05:19:55;61121.94;;;-145.32;100.00
14041;BME280;7095;51.388;6.196;2023-02-17T05:22:24;61237.50;;;-145.32;100.00
14041;BME280;7095;51.388;6.196;2023-02-17T05:24:53;61590.22;;;-145.32;100.00
14041;BME280;7095;51.388;6.196;2023-02-17T05:27:21;61723.75;;;-145.32;100.00
14041;BME280;7095;51.388;6.196;2023-02-17T05:29:50;61440.75;;;-145.32;100.00
14041;BME280;7095;51.388;6.196;2023-02-17T05:32:18;61221.56;;;-145.32;100.00
14041;BME280;7095;51.388;6.196;2023-02-17T05:34:47;61117.94;;;-145.32;100.00
14041;BME280;7095;51.388;6.196;2023-02-17T05:37:17;61006.38;;;-145.32;100.00
14041;BME280;7095;51.388;6.196;2023-02-17T05:39:46;61008.38;;;-145.32;100.00
14041;BME280;7095;51.388;6.196;2023-02-17T05:42:14;61177.72;;;-145.32;100.00
14041;BME280;7095;51.388;6.196;2023-02-17T05:44:43;61229.53;;;-145.32;100.00
14041;BME280;7095;51.388;6.196;2023-02-17T05:47:11;61333.16;;;-145.32;100.00
14041;BME280;7095;51.388;6.196;2023-02-17T05:49:41;61558.34;;;-145.32;100.00
14041;BME280;7095;51.388;6.196;2023-02-17T05:52:09;61719.75;;;-145.32;100.00
14041;BME280;7095;51.388;6.196;2023-02-17T05:54:39;61885.16;;;-145.32;100.00
14041;BME280;7095;51.388;6.196;2023-02-17T05:57:07;61994.78;;;-145.32;100.00
14041;BME280;7095;51.388;6.196;2023-02-17T05:59:36;62212.03;;;-145.32;100.00
14041;BME280;7095;51.388;6.196;2023-02-17T06:02:04;62271.81;;;-145.32;100.00
14041;BME280;7095;51.388;6.196;2023-02-17T06:04:32;62499.06;;;-145.32;100.00
14041;BME280;7095;51.388;6.196;2023-02-17T06:07:01;62680.44;;;-145.32;100.00
14041;BME280;7095;51.388;6.196;2023-02-17T06:09:29;62927.66;;;-145.32;100.00
14041;BME280;7095;51.388;6.196;2023-02-17T06:11:59;63386.22;;;-145.32;100.00
14041;BME280;7095;51.388;6.196;2023-02-17T06:14:28;63868.75;;;-145.32;100.00
14041;BME280;7095;51.388;6.196;2023-02-17T06:16:56;64339.41;;;-145.32;100.00
14041;BME280;7095;51.388;6.196;2023-02-17T06:19:27;65065.44;;;-145.32;100.00
14041;BME280;7095;51.388;6.196;2023-02-17T06:21:56;67028.94;;;-145.32;100.00
14041;BME280;7095;51.388;6.196;2023-02-17T06:24:24;68676.03;;;-145.32;100.00
14041;BME280;7095;51.388;6.196;2023-02-17T06:26:53;71187.13;;;-145.32;100.00
14041;BME280;7095;51.388;6.196;2023-02-17T06:29:22;73746.06;;;-145.32;100.00
14041;BME280;7095;51.388;6.196;2023-02-17T06:31:51;74770.16;;;-145.32;100.00
14041;BME280;7095;51.388;6.196;2023-02-17T06:34:19;75794.56;;;-145.32;100.00
14041;BME280;7095;51.388;6.196;2023-02-17T06:36:48;76306.91;;;-145.32;100.00
14041;BME280;7095;51.388;6.196;2023-02-17T06:39:16;77331.78;;;-145.32;100.00
14041;BME280;7095;51.388;6.196;2023-02-17T06:41:47;78613.28;;;-145.32;100.00
14041;BME280;7095;51.388;6.196;2023-02-17T06:44:16;79638.84;;;-145.32;100.00
14041;BME280;7095;51.388;6.196;2023-02-17T06:46:46;80921.25;;;-145.32;100.00
14041;BME280;7095;51.388;6.196;2023-02-17T06:49:14;82460.72;;;-145.32;100.00
14041;BME280;7095;51.388;6.196;2023-02-17T06:51:42;84514.44;;;-145.32;100.00
14041;BME280;7095;51.388;6.196;2023-02-17T06:54:11;86055.56;;;-145.32;100.00
14041;BME280;7095;51.388;6.196;2023-02-17T06:56:40;86826.34;;;-145.32;100.00
14041;BME280;7095;51.388;6.196;2023-02-17T06:59:08;87597.34;;;-145.32;100.00
14041;BME280;7095;51.388;6.196;2023-02-17T07:01:37;88625.56;;;-145.32;100.00
14041;BME280;7095;51.388;6.196;2023-02-17T07:04:07;88882.69;;;-145.32;100.00
14041;BME280;7095;51.388;6.196;2023-02-17T07:06:36;89654.13;;;-145.32;100.00
14041;BME280;7095;51.388;6.196;2023-02-17T07:09:04;90425.72;;;-145.32;100.00
14041;BME280;7095;51.388;6.196;2023-02-17T07:11:32;90940.22;;;-145.32;100.00
14041;BME280;7095;51.388;6.196;2023-02-17T07:14:01;91197.50;;;-145.32;100.00
14041;BME280;7095;51.388;6.196;2023-02-17T07:16:30;91712.13;;;-145.32;100.00
14041;BME280;7095;51.388;6.196;2023-02-17T07:18:58;91712.13;;;-145.32;100.00
14041;BME280;7095;51.388;6.196;2023-02-17T07:21:28;91454.81;;;-145.32;100.00
14041;BME280;7095;51.388;6.196;2023-02-17T07:23:57;91454.81;;;-145.32;100.00
14041;BME280;7095;51.388;6.196;2023-02-17T07:26:25;91197.50;;;-145.32;100.00
14041;BME280;7095;51.388;6.196;2023-02-17T07:28:54;90940.22;;;-145.32;100.00
14041;BME280;7095;51.388;6.196;2023-02-17T07:31:22;90682.97;;;-145.32;100.00
14041;BME280;7095;51.388;6.196;2023-02-17T07:33:51;90425.72;;;-145.32;100.00
14041;BME280;7095;51.388;6.196;2023-02-17T07:36:20;89654.13;;;-145.32;100.00
14041;BME280;7095;51.388;6.196;2023-02-17T07:38:50;89139.81;;;-145.32;100.00
14041;BME280;7095;51.388;6.196;2023-02-17T07:41:20;88625.56;;;-145.32;100.00
14041;BME280;7095;51.388;6.196;2023-02-17T07:43:53;88111.41;;;-145.32;100.00
14041;BME280;7095;51.388;6.196;2023-02-17T07:46:22;87854.38;;;-145.32;100.00
14041;BME280;7095;51.388;6.196;2023-02-17T07:48:51;87597.34;;;-145.32;100.00
14041;BME280;7095;51.388;6.196;2023-02-17T07:51:21;87340.31;;;-145.32;100.00
14041;BME280;7095;51.388;6.196;2023-02-17T07:53:52;86312.47;;;-145.32;100.00
14041;BME280;7095;51.388;6.196;2023-02-17T07:56:22;85541.78;;;-145.32;100.00
14041;BME280;7095;51.388;6.196;2023-02-17T07:58:50;85028.06;;;-145.32;100.00
14041;BME280;7095;51.388;6.196;2023-02-17T08:01:21;84257.66;;;-145.32;100.00
14041;BME280;7095;51.388;6.196;2023-02-17T08:03:50;83744.16;;;-145.32;100.00
14041;BME280;7095;51.388;6.196;2023-02-17T08:06:20;82717.38;;;-145.32;100.00
14041;BME280;7095;51.388;6.196;2023-02-17T08:08:52;81947.50;;;-145.32;100.00
14041;BME280;7095;51.388;6.196;2023-02-17T08:11:39;81690.91;;;-145.32;100.00
14041;BME280;7095;51.388;6.196;2023-02-17T08:14:27;80151.75;;;-145.32;100.00
14041;BME280;7095;51.388;6.196;2023-02-17T08:16:56;79638.84;;;-145.32;100.00
14041;BME280;7095;51.388;6.196;2023-02-17T08:19:25;79895.28;;;-145.32;100.00
14041;BME280;7095;51.388;6.196;2023-02-17T08:22:12;79895.28;;;-145.32;100.00
14041;BME280;7095;51.388;6.196;2023-02-17T08:24:42;78613.28;;;-145.32;100.00
14041;BME280;7095;51.388;6.196;2023-02-17T08:27:11;78356.94;;;-145.32;100.00
14041;BME280;7095;51.388;6.196;2023-02-17T08:29:40;77844.31;;;-145.32;100.00
14041;BME280;7095;51.388;6.196;2023-02-17T08:32:08;77075.53;;;-145.32;100.00
14041;BME280;7095;51.388;6.196;2023-02-17T08:34:37;76819.28;;;-145.32;100.00
14041;BME280;7095;51.388;6.196;2023-02-17T08:37:06;76050.72;;;-145.32;100.00
14041;BME280;7095;51.388;6.196;2023-02-17T08:39:36;75282.31;;;-145.32;100.00
14041;BME280;7095;51.388;6.196;2023-02-17T08:42:06;74770.16;;;-145.32;100.00
14041;BME280;7095;51.388;6.196;2023-02-17T08:44:35;74514.09;;;-145.32;100.00
14041;BME280;7095;51.388;6.196;2023-02-17T08:47:04;73490.06;;;-145.32;100.00
14041;BME280;7095;51.388;6.196;2023-02-17T08:49:33;72466.34;;;-145.32;100.00
14041;BME280;7095;51.388;6.196;2023-02-17T08:52:02;73234.09;;;-145.32;100.00
14041;BME280;7095;51.388;6.196;2023-02-17T08:54:31;72722.25;;;-145.32;100.00
14041;BME280;7095;51.388;6.196;2023-02-17T08:57:00;71698.75;;;-145.32;100.00
14041;BME280;7095;51.388;6.196;2023-02-17T08:59:29;70283.94;;;-145.32;100.00
14041;BME280;7095;51.388;6.196;2023-02-17T09:01:58;70168.06;;;-145.32;100.00
14041;BME280;7095;51.388;6.196;2023-02-17T09:04:27;68620.09;;;-145.32;100.00
14041;BME280;7095;51.388;6.196;2023-02-17T09:06:56;68067.00;;;-145.32;100.00
14041;BME280;7095;51.388;6.196;2023-02-17T09:09:25;66541.94;;;-145.32;100.00
14041;BME280;7095;51.388;6.196;2023-02-17T09:11:55;65953.28;;;-145.32;100.00
14041;BME280;7095;51.388;6.196;2023-02-17T09:14:24;65254.97;;;-145.32;100.00
14041;BME280;7095;51.388;6.196;2023-02-17T09:16:55;63988.41;;;-145.32;100.00
14041;BME280;7095;51.388;6.196;2023-02-17T09:19:25;64618.63;;;-145.32;100.00
14041;BME280;7095;51.388;6.196;2023-02-17T09:21:54;64064.19;;;-145.32;100.00
14041;BME280;7095;51.388;6.196;2023-02-17T09:24:23;62778.13;;;-145.32;100.00
14041;BME280;7095;51.388;6.196;2023-02-17T09:26:51;62943.59;;;-145.32;100.00
14041;BME280;7095;51.388;6.196;2023-02-17T09:29:20;62503.03;;;-145.32;100.00
14041;BME280;7095;51.388;6.196;2023-02-17T09:31:49;62070.50;;;-145.32;100.00
14041;BME280;7095;51.388;6.196;2023-02-17T09:34:19;61759.59;;;-145.32;100.00
14041;BME280;7095;51.388;6.196;2023-02-17T09:36:47;61594.19;;;-145.32;100.00
14041;BME280;7095;51.388;6.196;2023-02-17T09:39:17;61016.34;;;-145.32;100.00
14041;BME280;7095;51.388;6.196;2023-02-17T09:41:47;60811.13;;;-145.32;100.00
14041;BME280;7095;51.388;6.196;2023-02-17T09:44:23;60994.41;;;-145.32;100.00
14041;BME280;7095;51.388;6.196;2023-02-17T09:47:00;60466.47;;;-145.32;100.00
14041;BME280;7095;51.388;6.196;2023-02-17T09:49:35;60342.94;;;-145.32;100.00
14041;BME280;7095;51.388;6.196;2023-02-17T09:52:09;59914.69;;;-145.32;100.00
14041;BME280;7095;51.388;6.196;2023-02-17T09:54:44;60050.13;;;-145.32;100.00
14041;BME280;7095;51.388;6.196;2023-02-17T09:57:16;59759.31;;;-145.32;100.00
14041;BME280;7095;51.388;6.196;2023-02-17T09:59:49;59950.53;;;-145.32;100.00
14041;BME280;7095;51.388;6.196;2023-02-17T10:02:25;59000.56;;;-145.32;100.00
14041;BME280;7095;51.388;6.196;2023-02-17T10:04:59;57975.19;;;-145.32;100.00
14041;BME280;7095;51.388;6.196;2023-02-17T10:07:34;57959.28;;;-145.32;100.00
14041;BME280;7095;51.388;6.196;2023-02-17T10:10:07;57451.69;;;-145.32;100.00
14041;BME280;7095;51.388;6.196;2023-02-17T10:12:41;57471.59;;;-145.32;100.00
14041;BME280;7095;51.388;6.196;2023-02-17T10:15:13;57449.69;;;-145.32;100.00
14041;BME280;7095;51.388;6.196;2023-02-17T10:17:49;57437.75;;;-145.32;100.00
14041;BME280;7095;51.388;6.196;2023-02-17T10:20:23;57111.34;;;-145.32;100.00
14041;BME280;7095;51.388;6.196;2023-02-17T10:22:56;57093.44;;;-145.32;100.00
14041;BME280;7095;51.388;6.196;2023-02-17T10:25:40;57051.63;;;-145.32;100.00
14041;BME280;7095;51.388;6.196;2023-02-17T10:28:17;57029.75;;;-145.32;100.00
14041;BME280;7095;51.388;6.196;2023-02-17T10:30:51;56936.22;;;-145.32;100.00
14041;BME280;7095;51.388;6.196;2023-02-17T10:33:27;56888.44;;;-145.32;100.00
14041;BME280;7095;51.388;6.196;2023-02-17T10:36:09;56832.72;;;-145.32;100.00
14041;BME280;7095;51.388;6.196;2023-02-17T10:38:47;56574.03;;;-145.32;100.00
14041;BME280;7095;51.388;6.196;2023-02-17T10:41:20;56538.22;;;-145.32;100.00
14041;BME280;7095;51.388;6.196;2023-02-17T10:43:50;56645.69;;;-145.32;100.00
14041;BME280;7095;51.388;6.196;2023-02-17T10:46:24;56303.44;;;-145.32;100.00
14041;BME280;7095;51.388;6.196;2023-02-17T10:48:55;56279.56;;;-145.32;100.00
14041;BME280;7095;51.388;6.196;2023-02-17T10:51:27;56005.00;;;-145.32;100.00
14041;BME280;7095;51.388;6.196;2023-02-17T10:54:01;55919.44;;;-145.32;100.00
14041;BME280;7095;51.388;6.196;2023-02-17T10:56:34;55658.81;;;-145.32;100.00
14041;BME280;7095;51.388;6.196;2023-02-17T10:59:06;55748.34;;;-145.32;100.00
14041;BME280;7095;51.388;6.196;2023-02-17T11:01:40;55642.91;;;-145.32;100.00
14041;BME280;7095;51.388;6.196;2023-02-17T11:04:10;55503.66;;;-145.32;100.00
14041;BME280;7095;51.388;6.196;2023-02-17T11:06:43;55402.22;;;-145.32;100.00
14041;BME280;7095;51.388;6.196;2023-02-17T11:09:18;55167.50;;;-145.32;100.00
14041;BME280;7095;51.388;6.196;2023-02-17T11:11:50;55123.75;;;-145.32;100.00
14041;BME280;7095;51.388;6.196;2023-02-17T11:14:25;54974.56;;;-145.32;100.00
14041;BME280;7095;51.388;6.196;2023-02-17T11:16:56;54954.69;;;-145.32;100.00
14041;BME280;7095;51.388;6.196;2023-02-17T11:19:28;54897.00;;;-145.32;100.00
14041;BME280;7095;51.388;6.196;2023-02-17T11:21:58;54775.69;;;-145.32;100.00
14041;BME280;7095;51.388;6.196;2023-02-17T11:24:29;54624.53;;;-145.32;100.00
14041;BME280;7095;51.388;6.196;2023-02-17T11:27:00;54706.06;;;-145.32;100.00
14041;BME280;7095;51.388;6.196;2023-02-17T11:29:29;54680.22;;;-145.32;100.00
14041;BME280;7095;51.388;6.196;2023-02-17T11:32:01;54688.16;;;-145.32;100.00
14041;BME280;7095;51.388;6.196;2023-02-17T11:34:35;54708.06;;;-145.32;100.00
14041;BME280;7095;51.388;6.196;2023-02-17T11:37:19;54757.78;;;-145.32;100.00
14041;BME280;7095;51.388;6.196;2023-02-17T11:39:50;54795.56;;;-145.32;100.00
14041;BME280;7095;51.388;6.196;2023-02-17T11:42:21;54721.97;;;-145.32;100.00
14041;BME280;7095;51.388;6.196;2023-02-17T11:44:50;54741.88;;;-145.32;100.00
14041;BME280;7095;51.388;6.196;2023-02-17T11:47:25;54712.03;;;-145.32;100.00
14041;BME280;7095;51.388;6.196;2023-02-17T11:50:21;54620.56;;;-145.32;100.00
14041;BME280;7095;51.388;6.196;2023-02-17T11:53:21;54664.31;;;-145.32;100.00
14041;BME280;7095;51.388;6.196;2023-02-17T11:55:59;54596.69;;;-145.32;100.00
14041;BME280;7095;51.388;6.196;2023-02-17T11:58:40;54572.81;;;-145.32;100.00
14041;BME280;7095;51.388;6.196;2023-02-17T12:01:21;54539.03;;;-145.32;100.00
14041;BME280;7095;51.388;6.196;2023-02-17T12:04:19;54485.31;;;-145.32;100.00
14041;BME280;7095;51.388;6.196;2023-02-17T12:07:00;54519.13;;;-145.32;100.00
14041;BME280;7095;51.388;6.196;2023-02-17T12:09:40;54471.41;;;-145.32;100.00
14041;BME280;7095;51.388;6.196;2023-02-17T12:12:16;54425.66;;;-145.32;100.00
14041;BME280;7095;51.388;6.196;2023-02-17T12:14:57;54373.97;;;-145.32;100.00
14041;BME280;7095;51.388;6.196;2023-02-17T12:17:38;54405.78;;;-145.32;100.00
14041;BME280;7095;51.388;6.196;2023-02-17T12:20:27;54318.28;;;-145.32;100.00
14041;BME280;7095;51.388;6.196;2023-02-17T12:23:04;54306.34;;;-145.32;100.00
14041;BME280;7095;51.388;6.196;2023-02-17T12:25:39;54330.22;;;-145.32;100.00
14041;BME280;7095;51.388;6.196;2023-02-17T12:28:35;54322.25;;;-145.32;100.00
14041;BME280;7095;51.388;6.196;2023-02-17T12:31:18;54324.25;;;-145.32;100.00
14041;BME280;7095;51.388;6.196;2023-02-17T12:33:56;54300.38;;;-145.32;100.00
14041;BME280;7095;51.388;6.196;2023-02-17T12:36:29;54310.34;;;-145.32;100.00
14041;BME280;7095;51.388;6.196;2023-02-17T12:39:01;54326.25;;;-145.32;100.00
14041;BME280;7095;51.388;6.196;2023-02-17T12:41:34;54288.44;;;-145.32;100.00
14041;BME280;7095;51.388;6.196;2023-02-17T12:44:05;54369.97;;;-145.32;100.00
14041;BME280;7095;51.388;6.196;2023-02-17T12:46:40;54298.41;;;-145.32;100.00
14041;BME280;7095;51.388;6.196;2023-02-17T12:49:12;54377.94;;;-145.32;100.00
14041;BME280;7095;51.388;6.196;2023-02-17T12:51:47;54364.03;;;-145.32;100.00
14041;BME280;7095;51.388;6.196;2023-02-17T12:54:21;54334.19;;;-145.32;100.00
14041;BME280;7095;51.388;6.196;2023-02-17T12:57:04;54290.44;;;-145.32;100.00
14041;BME280;7095;51.388;6.196;2023-02-17T12:59:40;54298.41;;;-145.32;100.00
14041;BME280;7095;51.388;6.196;2023-02-17T13:02:10;54276.53;;;-145.32;100.00